Ruskin, Florida
Current Conditions -  °F | °C
As of 12:58 PM on Monday 26 Jan 2015 (Local Time) from KMCF Reporting Station
Few Clouds Few Clouds  
Wind Chill: 65°   Ceiling: Unl
Heat Index: 65°   Visibility: 10mi
Dew Point: 52°   Wind: 12mph
Humidity: 63%   Direction: 320°NW
Pressure: 29.92"   Gusts: 21mph
Location:  27.72°N, 82.43°W
Report Text: KMCF 261758Z AUTO 32010G18KT 10SM FEW041 18/11 A2992 RMK AO2 SLP135 60000 T01830112 10190 20152 58009
Loading
Personal Weather Stations






























Interactive Weather Map New forecast layout! Learn more

10-Day Weather Forecast

Advertisements
Track Severe Weather on mobile